Terminal Aerodrome Forecast
Issued by NWS

Home | Current Version | Previous Version | Text Only | Print | Product List | Glossary On
Versions: 1 2 3 4 5 6 7 8 9 10 11 12 13 14 15 16 17 18 19 20 21 22 23 24 25 26 27 28 29 30 31 32 33 34 35 36 37 38 39 40 41 42
000
FTUS43 KDLH 181700
TAFBRD
TAF
KBRD 181728Z 1818/1918 VRB03KT P6SM FEW009 OVC015
     FM182000 22008KT P6SM VCTS BKN035CB
      TEMPO 1820/1823 4SM -TSRA BKN035CB
     FM182300 30003KT P6SM VCSH BKN050
     FM190600 VRB01KT 2SM BR BKN007
     FM191600 33004KT P6SM SCT007 BKN015=

USA.gov is the U.S. government's official web portal to all federal, state and local government web resources and services.